Time;durP1;ratioP1;P1;durP2;ratioP2;P2;SDS_P1;SDS_P2;PMS_P1;PMS_P2;Temp;Humidity;BMP_temperature;BMP_pressure;BME280_temperature;BME280_humidity;BME280_pressure;Samples;Min_cycle;Max_cycle;Signal;HPM_P1;HPM_P2
2022/12/22 03:25:58;;;;;;;;;;;;;;;12.84;55.54;99969.38;2348723;75;22463;-76
2022/12/22 03:28:59;;;;;;;;;;;;;;;12.83;55.58;99966.38;2320777;75;52338;-76
2022/12/22 03:32:01;;;;;;;;;;;;;;;12.84;55.59;99956.58;2377817;75;50275;-76
2022/12/22 03:35:02;;;;;;;;;;;;;;;12.83;55.58;99945.14;2377812;74;50277;-76
2022/12/22 03:38:04;;;;;;;;;;;;;;;12.83;55.56;99942.48;2346967;73;50348;-76
2022/12/22 03:41:06;;;;;;;;;;;;;;;12.84;55.54;99944.16;2347552;75;50120;-76
2022/12/22 03:47:27;;;;;;;;;;;;;;;12.83;55.58;99950.45;2378041;73;22365;-76
2022/12/22 03:50:28;;;;;;;;;;;;;;;12.84;55.56;99946.82;2378018;75;51427;-76
2022/12/22 03:53:30;;;;;;;;;;;;;;;12.84;55.54;99944.16;2320909;75;52872;-76
2022/12/22 03:56:31;;;;;;;;;;;;;;;12.85;55.58;99941.00;2340482;75;50505;-76
2022/12/22 03:59:33;;;;;;;;;;;;;;;12.85;55.55;99939.68;2347492;75;50106;-76
2022/12/22 04:02:34;;;;;;;;;;;;;;;12.84;55.57;99929.56;2377849;75;50286;-76
2022/12/22 04:05:36;;;;;;;;;;;;;;;12.85;55.50;99925.90;2320934;75;51195;-76
2022/12/22 04:08:37;;;;;;;;;;;;;;;12.84;55.58;99913.63;2377592;73;50471;-76
2022/12/22 04:14:59;;;;;;;;;;;;;;;12.84;55.61;99907.00;2378261;75;22521;-76
2022/12/22 04:18:00;;;;;;;;;;;;;;;12.84;55.57;99893.72;2377733;73;51527;-76
2022/12/22 04:21:02;;;;;;;;;;;;;;;12.85;55.62;99897.20;2347263;75;52422;-76
2022/12/22 04:24:03;;;;;;;;;;;;;;;12.84;55.59;99892.86;2343588;75;51577;-76
2022/12/22 04:27:05;;;;;;;;;;;;;;;12.84;55.59;99889.73;2355887;75;50709;-76
2022/12/22 04:30:07;;;;;;;;;;;;;;;12.85;55.56;99892.72;2299362;76;51720;-77
2022/12/22 04:33:09;;;;;;;;;;;;;;;12.85;55.61;99895.37;2345081;76;50393;-76
2022/12/22 04:36:10;;;;;;;;;;;;;;;12.86;55.56;99894.86;2325067;76;50257;-76
2022/12/22 04:39:12;;;;;;;;;;;;;;;12.86;55.58;99886.91;2345038;74;50281;-76
2022/12/22 04:42:13;;;;;;;;;;;;;;;12.84;55.60;99879.59;2325058;76;51662;-77
2022/12/22 04:45:15;;;;;;;;;;;;;;;12.83;55.61;99868.15;2325158;76;50766;-76
2022/12/22 04:48:16;;;;;;;;;;;;;;;12.84;55.60;99876.47;2325026;74;50280;-76
2022/12/22 04:51:18;;;;;;;;;;;;;;;12.87;55.55;99883.27;2345119;76;50671;-77
2022/12/22 04:54:20;;;;;;;;;;;;;;;12.85;55.60;99864.84;2299433;76;51678;-75
2022/12/22 04:57:21;;;;;;;;;;;;;;;12.84;55.61;99859.20;2355955;74;51493;-75
2022/12/22 05:00:23;;;;;;;;;;;;;;;12.85;55.58;99860.03;2345134;76;51415;-76
2022/12/22 05:03:24;;;;;;;;;;;;;;;12.86;55.53;99851.06;2345106;76;50729;-76
2022/12/22 05:06:26;;;;;;;;;;;;;;;12.85;55.60;99851.56;2324780;76;51701;-75
2022/12/22 05:09:27;;;;;;;;;;;;;;;12.85;55.52;99846.25;2345150;74;51556;-76
2022/12/22 05:15:48;;;;;;;;;;;;;;;12.86;55.54;99842.59;2329416;76;22298;-76
2022/12/22 05:18:50;;;;;;;;;;;;;;;12.85;55.58;99846.25;2299525;76;51767;-74
2022/12/22 05:21:52;;;;;;;;;;;;;;;12.85;55.59;99837.47;2345591;75;50681;-75
2022/12/22 05:24:53;;;;;;;;;;;;;;;12.85;55.57;99836.96;2347549;75;51547;-77
2022/12/22 05:27:55;;;;;;;;;;;;;;;12.86;55.56;99830.64;2333271;74;53419;-77
2022/12/22 05:30:56;;;;;;;;;;;;;;;12.85;55.64;99826.84;2300128;76;52709;-76
2022/12/22 05:33:58;;;;;;;;;;;;;;;12.85;55.61;99827.67;2325864;76;51465;-76
2022/12/22 05:36:59;;;;;;;;;;;;;;;12.85;55.60;99828.17;2326864;76;50812;-77
2022/12/22 05:40:01;;;;;;;;;;;;;;;12.85;55.68;99821.53;2347344;74;51462;-76
2022/12/22 05:43:03;;;;;;;;;;;;;;;12.84;55.65;99811.42;2328024;76;51695;-76
2022/12/22 05:46:08;;;;;;;;;;;;;;;12.84;55.63;99808.77;2328041;76;52639;-76
2022/12/22 05:49:10;;;;;;;;;;;;;;;12.84;55.67;99802.13;2330744;75;50833;-77
2022/12/22 05:52:11;;;;;;;;;;;;;;;12.85;55.62;99797.64;2349213;76;50218;-77
2022/12/22 05:55:13;;;;;;;;;;;;;;;12.86;55.63;99801.95;2334666;75;51073;-77
2022/12/22 05:58:15;;;;;;;;;;;;;;;12.84;55.67;99794.16;2372499;73;50448;-77
2022/12/22 06:01:16;;;;;;;;;;;;;;;12.85;55.66;99793.16;2347931;75;50689;-77
2022/12/22 06:04:18;;;;;;;;;;;;;;;12.84;55.65;99778.23;2347788;75;51476;-77
2022/12/22 06:07:24;;;;;;;;;;;;;;;12.85;55.59;99783.04;2347435;75;51140;-77
2022/12/22 06:10:23;;;;;;;;;;;;;;;12.86;55.64;99785.51;2377824;75;22281;-77
2022/12/22 06:13:24;;;;;;;;;;;;;;;12.85;55.61;99773.25;2347906;75;50677;-77
2022/12/22 06:16:26;;;;;;;;;;;;;;;12.85;55.65;99773.25;2377794;74;51628;-77
2022/12/22 06:19:27;;;;;;;;;;;;;;;12.84;55.65;99767.62;2320724;75;52383;-77
2022/12/22 06:22:29;;;;;;;;;;;;;;;12.85;55.67;99769.77;2377721;75;51472;-77
2022/12/22 06:25:31;;;;;;;;;;;;;;;12.86;55.65;99766.10;2366580;75;51540;-77
2022/12/22 06:28:32;;;;;;;;;;;;;;;12.84;55.66;99747.70;2347110;73;50231;-77
2022/12/22 06:31:34;;;;;;;;;;;;;;;12.84;55.67;99750.83;2325137;76;51225;-77
2022/12/22 06:34:35;;;;;;;;;;;;;;;12.85;55.62;99749.34;2299104;76;51485;-77
2022/12/22 06:37:37;;;;;;;;;;;;;;;12.85;55.65;99752.01;2324860;74;50412;-77
2022/12/22 06:40:38;;;;;;;;;;;;;;;12.86;55.62;99747.52;2345050;76;50763;-77
2022/12/22 06:43:40;;;;;;;;;;;;;;;12.85;55.68;99748.02;2324991;76;52589;-77
2022/12/22 06:46:42;;;;;;;;;;;;;;;12.84;55.70;99750.36;2344782;76;50410;-77
2022/12/22 06:49:43;;;;;;;;;;;;;;;12.85;55.66;99745.38;2324969;75;50660;-77
2022/12/22 06:52:45;;;;;;;;;;;;;;;12.85;55.66;99748.53;2344920;76;50733;-77
2022/12/22 06:55:46;;;;;;;;;;;;;;;12.85;55.68;99745.38;2331188;75;52967;-76
2022/12/22 06:58:48;;;;;;;;;;;;;;;12.84;55.69;99739.74;2377878;73;50625;-77
2022/12/22 07:01:49;;;;;;;;;;;;;;;12.85;55.65;99726.78;2347621;75;51331;-76
2022/12/22 07:04:51;;;;;;;;;;;;;;;12.84;55.67;99727.80;2378044;75;51554;-76
2022/12/22 07:07:53;;;;;;;;;;;;;;;12.85;55.67;99733.42;2320883;73;52623;-77
2022/12/22 07:10:57;;;;;;;;;;;;;;;12.85;55.70;99742.72;2347440;75;51474;-77
2022/12/22 07:13:58;;;;;;;;;;;;;;;12.85;55.73;99745.88;2377936;75;50680;-77
2022/12/22 07:17:00;;;;;;;;;;;;;;;12.84;55.71;99731.78;2377676;75;50750;-77
2022/12/22 07:20:02;;;;;;;;;;;;;;;12.85;55.68;99738.73;2347237;75;51183;-76
2022/12/22 07:23:03;;;;;;;;;;;;;;;12.85;55.73;99724.13;2347431;75;50455;-77
2022/12/22 07:26:06;;;;;;;;;;;;;;;12.84;55.71;99726.47;2337881;75;50383;-77
2022/12/22 07:29:07;;;;;;;;;;;;;;;12.85;55.73;99725.45;2377899;73;50382;-78
2022/12/22 07:32:09;;;;;;;;;;;;;;;12.85;55.72;99728.62;2320913;75;52524;-77
2022/12/22 07:35:10;;;;;;;;;;;;;;;12.84;55.72;99731.78;2347852;75;51641;-76
2022/12/22 07:38:12;;;;;;;;;;;;;;;12.84;55.73;99717.65;2377652;73;51546;-77
2022/12/22 07:44:33;;;;;;;;;;;;;;;12.84;55.71;99715.84;2352545;75;22424;-77
2022/12/22 07:47:35;;;;;;;;;;;;;;;12.84;55.73;99710.54;2347815;73;50174;-77
2022/12/22 07:50:36;;;;;;;;;;;;;;;12.85;55.74;99716.16;2377858;75;50387;-76
2022/12/22 07:53:39;;;;;;;;;;;;;;;12.85;55.72;99706.88;2377748;73;50764;-77
2022/12/22 07:56:40;;;;;;;;;;;;;;;12.85;55.72;99698.91;2314814;75;51386;-77
2022/12/22 07:59:42;;;;;;;;;;;;;;;12.85;55.71;99696.76;2377794;73;51485;-77
2022/12/22 08:02:45;;;;;;;;;;;;;;;12.85;55.71;99698.91;2377788;75;51479;-76
2022/12/22 08:05:47;;;;;;;;;;;;;;;12.85;55.73;99693.60;2377408;75;51522;-77
2022/12/22 08:08:48;;;;;;;;;;;;;;;12.85;55.73;99693.60;2320589;75;49593;-77
2022/12/22 08:11:50;;;;;;;;;;;;;;;12.83;55.78;99695.59;2377822;75;50305;-77
2022/12/22 08:14:51;;;;;;;;;;;;;;;12.85;55.73;99691.45;2347420;75;50285;-76
2022/12/22 08:17:53;;;;;;;;;;;;;;;12.85;55.77;99689.62;2347404;73;50269;-76
2022/12/22 08:20:55;;;;;;;;;;;;;;;12.85;55.74;99682.16;2347311;75;51637;-76
2022/12/22 08:23:56;;;;;;;;;;;;;;;12.86;55.75;99682.47;2375304;74;51538;-76
2022/12/22 08:27:01;;;;;;;;;;;;;;;12.85;55.72;99685.63;2355781;75;51447;-76
2022/12/22 08:30:03;;;;;;;;;;;;;;;12.85;55.74;99679.00;2345091;74;51496;-77
2022/12/22 08:33:05;;;;;;;;;;;;;;;12.84;55.77;99674.70;2325068;76;51168;-77
2022/12/22 08:36:06;;;;;;;;;;;;;;;12.86;55.74;99673.19;2345009;76;50322;-77
2022/12/22 08:39:08;;;;;;;;;;;;;;;12.86;55.72;99674.01;2344939;74;51529;-77
2022/12/22 08:42:10;;;;;;;;;;;;;;;12.85;55.75;99673.69;2345157;76;51347;-76
2022/12/22 08:45:12;;;;;;;;;;;;;;;12.86;55.71;99666.04;2325011;76;52617;-77
2022/12/22 08:48:14;;;;;;;;;;;;;;;12.86;55.77;99670.53;2324829;74;51583;-77
2022/12/22 08:51:15;;;;;;;;;;;;;;;12.85;55.74;99657.77;2325273;76;50711;-77
2022/12/22 08:54:17;;;;;;;;;;;;;;;12.85;55.74;99655.11;2344914;76;50770;-76
2022/12/22 08:57:18;;;;;;;;;;;;;;;12.85;55.77;99649.80;2310742;76;51264;-77
2022/12/22 09:00:20;;;;;;;;;;;;;;;12.84;55.79;99649.48;2325189;75;50715;-77
2022/12/22 09:03:22;;;;;;;;;;;;;;;12.85;55.75;99643.16;2325285;76;51375;-77
2022/12/22 09:06:24;;;;;;;;;;;;;;;12.85;55.75;99644.99;2324923;76;50296;-77
2022/12/22 09:09:25;;;;;;;;;;;;;;;12.86;55.70;99644.80;2299383;76;52352;-77
2022/12/22 09:12:27;;;;;;;;;;;;;;;12.85;55.79;99625.91;2345087;76;51429;-77
2022/12/22 09:15:28;;;;;;;;;;;;;;;12.86;55.76;99626.22;2345040;76;50370;-77
2022/12/22 09:18:30;;;;;;;;;;;;;;;12.85;55.75;99625.91;2325033;75;50142;-77
2022/12/22 09:21:32;;;;;;;;;;;;;;;12.85;55.77;99621.10;2299211;74;49611;-77
2022/12/22 09:24:33;;;;;;;;;;;;;;;12.84;55.80;99622.93;2325229;76;51472;-77
2022/12/22 09:27:35;;;;;;;;;;;;;;;12.85;55.77;99627.23;2336783;74;50109;-77
2022/12/22 09:30:36;;;;;;;;;;;;;;;12.85;55.79;99617.94;2345053;76;50266;-77
2022/12/22 09:33:38;;;;;;;;;;;;;;;12.86;55.73;99614.78;2299339;76;52357;-78
2022/12/22 09:36:40;;;;;;;;;;;;;;;12.84;55.76;99616.30;2299150;76;50963;-77
2022/12/22 09:39:41;;;;;;;;;;;;;;;12.86;55.74;99606.31;2345001;74;51468;-77
2022/12/22 09:42:43;;;;;;;;;;;;;;;12.86;55.76;99610.30;2345020;75;51394;-77
2022/12/22 09:45:45;;;;;;;;;;;;;;;12.85;55.77;99604.66;2345009;76;51461;-77
2022/12/22 09:48:46;;;;;;;;;;;;;;;12.86;55.75;99607.64;2324846;75;51749;-77
2022/12/22 09:51:56;;;;;;;;;;;;;;;12.86;55.78;99597.52;2344967;76;51516;-77
2022/12/22 09:54:57;;;;;;;;;;;;;;;12.85;55.79;99592.72;2345928;75;51626;-77
2022/12/22 09:57:59;;;;;;;;;;;;;;;12.85;55.79;99585.27;2329171;74;50434;-77
2022/12/22 10:01:02;;;;;;;;;;;;;;;12.85;55.77;99590.06;2325176;76;49825;-77
2022/12/22 10:04:17;;;;;;;;;;;;;;;12.85;55.78;99579.45;2345127;76;50298;-77
2022/12/22 10:07:33;;;;;;;;;;;;;;;12.86;55.77;99577.61;2345030;76;50741;-77
2022/12/22 10:10:34;;;;;;;;;;;;;;;12.85;55.81;99582.10;2344989;76;50864;-77
2022/12/22 10:13:36;;;;;;;;;;;;;;;12.86;55.82;99577.61;2324844;76;52417;-77
2022/12/22 10:16:38;;;;;;;;;;;;;;;12.86;55.82;99582.41;2344812;76;51554;-77
2022/12/22 10:19:39;;;;;;;;;;;;;;;12.87;55.82;99580.61;2345019;74;51438;-77
2022/12/22 10:22:42;;;;;;;;;;;;;;;12.86;55.79;99574.95;2344933;74;50672;-77
2022/12/22 10:25:58;;;;;;;;;;;;;;;12.86;55.78;99573.13;2340363;74;51723;-77
2022/12/22 10:29:03;;;;;;;;;;;;;;;12.85;55.84;99563.52;2307244;76;50653;-77
2022/12/22 10:32:07;;;;;;;;;;;;;;;12.85;55.87;99562.19;2307586;77;51499;-77
2022/12/22 10:35:08;;;;;;;;;;;;;;;12.86;55.88;99557.70;2307043;76;51522;-77
2022/12/22 10:38:14;;;;;;;;;;;;;;;12.86;55.84;99546.58;2262819;76;52441;-77
2022/12/22 10:41:17;;;;;;;;;;;;;;;12.85;55.85;99548.09;2289666;76;50287;-77
2022/12/22 10:44:20;;;;;;;;;;;;;;;12.85;55.85;99539.62;2307553;77;50864;-77
2022/12/22 10:47:22;;;;;;;;;;;;;;;12.88;55.86;99541.61;2307430;76;50286;-77
2022/12/22 10:50:24;;;;;;;;;;;;;;;12.86;55.89;99535.95;2251751;77;51749;-77
2022/12/22 10:53:46;;;;;;;;;;;;;;;12.86;55.88;99533.30;2307538;76;50647;-77
2022/12/22 10:56:47;;;;;;;;;;;;;;;12.86;55.89;99533.30;2366795;75;51606;-76
2022/12/22 10:59:50;;;;;;;;;;;;;;;12.86;55.88;99529.83;2347564;75;51513;-76
2022/12/22 11:02:52;;;;;;;;;;;;;;;12.86;55.87;99522.69;2347214;75;51779;-77
2022/12/22 11:05:53;;;;;;;;;;;;;;;12.87;55.88;99532.83;2377924;75;50387;-77
2022/12/22 11:08:55;;;;;;;;;;;;;;;12.86;55.86;99520.03;2377633;73;50252;-77
2022/12/22 11:11:58;;;;;;;;;;;;;;;12.85;55.91;99514.41;2377839;75;50671;-77
2022/12/22 11:15:06;;;;;;;;;;;;;;;12.88;55.80;99514.56;2347544;75;51791;-77
2022/12/22 11:18:12;;;;;;;;;;;;;;;12.87;55.88;99511.59;2377996;73;22401;-77
2022/12/22 11:21:18;;;;;;;;;;;;;;;12.88;55.87;99509.25;2375923;73;49980;-77
2022/12/22 11:24:21;;;;;;;;;;;;;;;12.88;55.83;99498.63;2371573;75;50733;-77
2022/12/22 11:27:26;;;;;;;;;;;;;;;12.86;55.87;99495.31;2348873;73;51843;-77
2022/12/22 11:30:30;;;;;;;;;;;;;;;12.89;55.89;99499.45;2393639;74;50357;-77
2022/12/22 11:33:45;;;;;;;;;;;;;;;12.89;55.86;99494.96;2392674;74;51488;-77
2022/12/22 11:37:04;;;;;;;;;;;;;;;12.90;55.84;99487.85;2393902;74;51528;-78
2022/12/22 11:40:10;;;;;;;;;;;;;;;12.91;55.77;99492.97;2368285;74;51776;-78
2022/12/22 11:43:28;;;;;;;;;;;;;;;12.90;55.86;99491.83;2393822;73;51495;-77
2022/12/22 11:46:44;;;;;;;;;;;;;;;12.90;55.84;99486.02;2393665;74;51493;-77
2022/12/22 11:49:48;;;;;;;;;;;;;;;12.89;55.89;99480.36;2395360;73;50598;-78
2022/12/22 11:53:11;;;;;;;;;;;;;;;12.91;55.84;99486.84;2367094;74;50197;-78
2022/12/22 11:56:19;;;;;;;;;;;;;;;12.90;55.82;99482.54;2359257;74;22458;-78
2022/12/22 11:59:22;;;;;;;;;;;;;;;12.89;55.93;99479.54;2378496;73;51350;-77
2022/12/22 12:02:31;;;;;;;;;;;;;;;12.89;55.87;99476.38;2380234;73;51531;-77
2022/12/22 12:05:44;;;;;;;;;;;;;;;12.90;55.92;99485.20;2347792;75;51721;-77
2022/12/22 12:08:47;;;;;;;;;;;;;;;12.90;55.92;99478.56;2377439;73;51342;-77
2022/12/22 12:11:53;;;;;;;;;;;;;;;12.90;55.94;99485.20;2377651;74;51634;-77
2022/12/22 12:15:00;;;;;;;;;;;;;;;12.90;55.87;99481.22;2377643;73;50810;-77
2022/12/22 12:18:22;;;;;;;;;;;;;;;12.90;55.95;99479.89;2346501;73;52466;-77
2022/12/22 12:21:27;;;;;;;;;;;;;;;12.90;55.91;99478.56;2377704;74;50101;-77
2022/12/22 12:24:31;;;;;;;;;;;;;;;12.90;55.93;99479.38;2368937;73;51582;-77
2022/12/22 12:27:43;;;;;;;;;;;;;;;12.89;55.98;99478.22;2355558;74;50708;-77
2022/12/22 12:30:49;;;;;;;;;;;;;;;12.90;55.89;99482.03;2322928;76;52589;-78
2022/12/22 12:33:51;;;;;;;;;;;;;;;12.90;55.91;99472.74;2344619;75;51610;-77
2022/12/22 12:37:00;;;;;;;;;;;;;;;12.90;55.94;99473.25;2344808;76;50318;-77
2022/12/22 12:40:20;;;;;;;;;;;;;;;12.90;55.97;99471.92;2344848;75;51467;-77
2022/12/22 12:43:22;;;;;;;;;;;;;;;12.90;55.98;99474.58;2344886;76;51522;-77
2022/12/22 12:46:42;;;;;;;;;;;;;;;12.90;56.00;99466.61;2344703;76;50774;-76
2022/12/22 12:50:02;;;;;;;;;;;;;;;12.90;55.95;99469.27;2344792;74;51557;-77
2022/12/22 12:53:10;;;;;;;;;;;;;;;12.91;55.96;99470.91;2344778;76;51508;-76
2022/12/22 12:56:12;;;;;;;;;;;;;;;12.89;56.00;99468.92;2312879;74;50247;-77
2022/12/22 12:59:15;;;;;;;;;;;;;;;12.89;55.99;99467.09;2344808;74;50678;-76
2022/12/22 13:02:33;;;;;;;;;;;;;;;12.89;55.98;99465.77;2343390;75;50478;-76
2022/12/22 13:05:36;;;;;;;;;;;;;;;12.91;55.96;99470.91;2344985;76;51656;-76
2022/12/22 13:08:56;;;;;;;;;;;;;;;12.90;55.98;99462.63;2322323;75;51320;-77
2022/12/22 13:11:58;;;;;;;;;;;;;;;12.90;55.98;99470.09;2344854;76;50314;-77
2022/12/22 13:15:00;;;;;;;;;;;;;;;12.91;55.94;99477.55;2341551;76;50433;-77
2022/12/22 13:18:02;;;;;;;;;;;;;;;12.90;56.01;99473.25;2346406;74;50764;-77
2022/12/22 13:21:08;;;;;;;;;;;;;;;12.90;56.04;99486.52;2325460;76;51212;-77
2022/12/22 13:24:11;;;;;;;;;;;;;;;12.90;56.06;99489.17;2344816;74;51556;-76
2022/12/22 13:27:13;;;;;;;;;;;;;;;12.91;55.99;99482.86;2355761;75;50850;-76
2022/12/22 13:30:15;;;;;;;;;;;;;;;12.92;55.99;99489.80;2345270;74;51453;-76
2022/12/22 13:33:18;;;;;;;;;;;;;;;12.90;56.00;99493.16;2325308;76;49676;-75
2022/12/22 13:36:20;;;;;;;;;;;;;;;12.91;56.03;99498.28;2344998;76;51525;-76
2022/12/22 13:39:21;;;;;;;;;;;;;;;12.90;56.11;99504.60;2345109;74;50853;-77
2022/12/22 13:42:23;;;;;;;;;;;;;;;12.90;56.11;99505.92;2345208;75;51508;-76
2022/12/22 13:45:29;;;;;;;;;;;;;;;12.90;56.01;99504.60;2299638;76;52590;-77
2022/12/22 13:48:35;;;;;;;;;;;;;;;12.90;56.07;99511.23;2345002;74;50472;-76
2022/12/22 13:51:37;;;;;;;;;;;;;;;12.90;56.12;99510.42;2344788;75;50258;-76
2022/12/22 13:54:39;;;;;;;;;;;;;;;12.90;56.09;99519.70;2345145;76;51583;-77
2022/12/22 13:57:40;;;;;;;;;;;;;;;12.90;56.07;99515.73;2336806;74;51774;-76
2022/12/22 14:00:42;;;;;;;;;;;;;;;12.90;56.08;99520.53;2345234;76;50782;-76
2022/12/22 14:03:48;;;;;;;;;;;;;;;12.91;56.10;99523.50;2345427;76;51532;-76
2022/12/22 14:06:49;;;;;;;;;;;;;;;12.92;56.03;99524.32;2345178;76;51506;-76
2022/12/22 14:09:51;;;;;;;;;;;;;;;12.91;56.12;99530.64;2325320;75;52445;-76
2022/12/22 14:12:52;;;;;;;;;;;;;;;12.92;56.13;99534.94;2325555;76;50641;-76
2022/12/22 14:16:01;;;;;;;;;;;;;;;12.91;56.08;99531.47;2345317;76;50681;-76
2022/12/22 14:19:02;;;;;;;;;;;;;;;12.92;56.13;99530.95;2345236;74;51574;-76
2022/12/22 14:22:08;;;;;;;;;;;;;;;12.90;56.11;99544.42;2325299;76;52447;-76
2022/12/22 14:25:14;;;;;;;;;;;;;;;12.91;56.16;99545.24;2332403;73;50394;-76
2022/12/22 14:28:23;;;;;;;;;;;;;;;12.91;56.11;99554.03;2350549;74;50297;-76
2022/12/22 14:31:25;;;;;;;;;;;;;;;12.91;56.11;99555.86;2344256;75;50472;-77
2022/12/22 14:34:27;;;;;;;;;;;;;;;12.92;56.11;99568.13;2325638;76;49598;-77
2022/12/22 14:37:29;;;;;;;;;;;;;;;12.90;56.18;99563.01;2345104;74;50676;-77
2022/12/22 14:40:32;;;;;;;;;;;;;;;12.91;56.21;99574.45;2345294;76;51550;-76
2022/12/22 14:43:34;;;;;;;;;;;;;;;12.90;56.17;99572.81;2344697;75;51513;-76
2022/12/22 14:46:35;;;;;;;;;;;;;;;12.91;56.15;99577.11;2325101;76;50997;-76
2022/12/22 14:49:53;;;;;;;;;;;;;;;12.92;56.19;99584.05;2325778;75;51453;-76
2022/12/22 14:52:56;;;;;;;;;;;;;;;12.91;56.24;99585.06;2345836;76;50775;-77
2022/12/22 14:55:57;;;;;;;;;;;;;;;12.92;56.17;99592.02;2356341;75;50339;-76
2022/12/22 14:59:09;;;;;;;;;;;;;;;12.91;56.22;99593.03;2325170;75;51554;-77
2022/12/22 15:02:21;;;;;;;;;;;;;;;12.90;56.22;99598.03;2345512;76;50733;-77
2022/12/22 15:05:26;;;;;;;;;;;;;;;12.91;56.25;99606.31;2345374;76;51611;-77
2022/12/22 15:08:37;;;;;;;;;;;;;;;12.90;56.21;99616.11;2345117;74;50693;-77
2022/12/22 15:11:42;;;;;;;;;;;;;;;12.91;56.24;99620.91;2299566;76;51705;-77
2022/12/22 15:14:46;;;;;;;;;;;;;;;12.91;56.21;99622.23;2345436;76;51552;-77
2022/12/22 15:17:48;;;;;;;;;;;;;;;12.90;56.27;99623.25;2345417;74;22174;-77
2022/12/22 15:20:50;;;;;;;;;;;;;;;12.90;56.29;99628.56;2345390;76;51494;-77
2022/12/22 15:23:51;;;;;;;;;;;;;;;12.91;56.27;99640.83;2325065;76;52580;-77
2022/12/22 15:26:53;;;;;;;;;;;;;;;12.90;56.26;99643.98;2355921;73;50677;-77
2022/12/22 15:29:55;;;;;;;;;;;;;;;12.91;56.30;99642.15;2345328;74;50649;-77
2022/12/22 15:32:56;;;;;;;;;;;;;;;12.92;56.24;99647.78;2325558;76;50664;-77
2022/12/22 15:35:58;;;;;;;;;;;;;;;12.90;56.34;99641.83;2325138;76;52551;-77
2022/12/22 15:38:59;;;;;;;;;;;;;;;12.91;56.33;99656.75;2345081;74;51496;-77
2022/12/22 15:42:01;;;;;;;;;;;;;;;12.90;56.34;99665.73;2325490;76;50684;-77
2022/12/22 15:45:02;;;;;;;;;;;;;;;12.91;56.28;99671.36;2345368;76;50548;-76
2022/12/22 15:48:04;;;;;;;;;;;;;;;12.91;56.33;99674.02;2325287;74;52551;-77
2022/12/22 15:51:07;;;;;;;;;;;;;;;12.91;56.39;99671.36;2345435;76;50393;-77
2022/12/22 15:54:10;;;;;;;;;;;;;;;12.91;56.32;99674.02;2325839;76;51461;-77
2022/12/22 15:57:13;;;;;;;;;;;;;;;12.91;56.35;99678.81;2356524;75;50822;-77
2022/12/22 16:00:15;;;;;;;;;;;;;;;12.90;56.42;99677.17;2345659;74;50813;-77
2022/12/22 16:03:16;;;;;;;;;;;;;;;12.92;56.34;99683.62;2345646;75;50337;-76
2022/12/22 16:06:18;;;;;;;;;;;;;;;12.91;56.36;99691.27;2345443;76;50292;-77
2022/12/22 16:09:21;;;;;;;;;;;;;;;12.91;56.34;99696.07;2345574;74;51353;-77
2022/12/22 16:12:23;;;;;;;;;;;;;;;12.92;56.32;99704.39;2325680;76;51369;-77
2022/12/22 16:15:24;;;;;;;;;;;;;;;12.91;56.32;99712.51;2345617;75;50347;-77
2022/12/22 16:18:26;;;;;;;;;;;;;;;12.92;56.36;99723.45;2325255;75;50356;-77
2022/12/22 16:21:29;;;;;;;;;;;;;;;12.92;56.40;99715.48;2345326;75;50653;-77
2022/12/22 16:24:31;;;;;;;;;;;;;;;12.91;56.40;99715.16;2325600;76;52439;-77
2022/12/22 16:27:34;;;;;;;;;;;;;;;12.91;56.41;99727.94;2356580;73;50512;-77
2022/12/22 16:30:36;;;;;;;;;;;;;;;12.92;56.37;99740.23;2346118;76;51566;-77
2022/12/22 16:33:37;;;;;;;;;;;;;;;12.92;56.41;99743.36;2346326;76;51664;-77
2022/12/22 16:36:39;;;;;;;;;;;;;;;12.91;56.47;99749.17;2300226;76;52522;-77
2022/12/22 16:39:40;;;;;;;;;;;;;;;12.92;56.41;99753.98;2326081;75;51464;-77
2022/12/22 16:42:43;;;;;;;;;;;;;;;12.91;56.44;99759.80;2345890;76;51486;-77
2022/12/22 16:45:44;;;;;;;;;;;;;;;12.91;56.49;99771.74;2345964;76;51744;-77
2022/12/22 16:48:48;;;;;;;;;;;;;;;12.92;56.40;99773.89;2325143;75;49547;-77
2022/12/22 16:51:50;;;;;;;;;;;;;;;12.92;56.46;99765.92;2345131;76;50610;-77
2022/12/22 16:54:51;;;;;;;;;;;;;;;12.92;56.50;99764.59;2346308;74;50310;-77
2022/12/22 16:57:53;;;;;;;;;;;;;;;12.92;56.42;99756.63;2330251;74;50000;-77
2022/12/22 17:00:54;;;;;;;;;;;;;;;12.93;56.47;99768.93;2299621;76;51286;-76
2022/12/22 17:03:56;;;;;;;;;;;;;;;12.92;56.50;99760.14;2345481;75;50655;-77
2022/12/22 17:06:58;;;;;;;;;;;;;;;12.93;56.49;99767.61;2345441;76;50664;-77
2022/12/22 17:10:04;;;;;;;;;;;;;;;12.93;56.47;99776.90;2345389;74;50472;-77
2022/12/22 17:13:03;;;;;;;;;;;;;;;12.92;56.55;99781.38;2344837;75;22408;-77
2022/12/22 17:16:05;;;;;;;;;;;;;;;12.92;56.53;99792.48;2345094;76;50278;-77
2022/12/22 17:19:07;;;;;;;;;;;;;;;12.92;56.53;99792.48;2345347;74;50262;-76
2022/12/22 17:22:11;;;;;;;;;;;;;;;12.93;56.52;99796.81;2345330;75;51667;-77
2022/12/22 17:25:23;;;;;;;;;;;;;;;12.93;56.53;99795.48;2338174;74;52681;-77
2022/12/22 17:28:24;;;;;;;;;;;;;;;12.92;56.56;99792.48;2344152;74;51600;-77
2022/12/22 17:31:26;;;;;;;;;;;;;;;12.91;56.60;99801.45;2325952;76;51535;-76
2022/12/22 17:34:28;;;;;;;;;;;;;;;12.91;56.57;99801.45;2345590;76;50743;-77
2022/12/22 17:37:29;;;;;;;;;;;;;;;12.92;56.56;99812.39;2299575;74;52354;-77
2022/12/22 17:40:31;;;;;;;;;;;;;;;12.92;56.58;99818.55;2345593;75;51502;-77
2022/12/22 17:43:32;;;;;;;;;;;;;;;12.92;56.60;99823.02;2345734;75;50712;-77
2022/12/22 17:46:34;;;;;;;;;;;;;;;12.91;56.58;99812.89;2345697;76;50303;-77
2022/12/22 17:49:35;;;;;;;;;;;;;;;12.93;56.57;99816.72;2300225;76;50184;-76
2022/12/22 17:52:37;;;;;;;;;;;;;;;12.91;56.58;99822.69;2328149;76;50187;-77
2022/12/22 17:55:39;;;;;;;;;;;;;;;12.92;56.62;99826.99;2356609;75;50726;-77
2022/12/22 17:58:42;;;;;;;;;;;;;;;12.91;56.67;99832.81;2326737;75;51694;-77
2022/12/22 18:01:44;;;;;;;;;;;;;;;12.91;56.60;99822.19;2300905;76;52670;-77
2022/12/22 18:04:46;;;;;;;;;;;;;;;12.91;56.65;99828.00;2349018;75;51505;-77
2022/12/22 18:07:47;;;;;;;;;;;;;;;12.91;56.63;99837.30;2326209;74;50742;-77
2022/12/22 18:10:49;;;;;;;;;;;;;;;12.91;56.64;99831.48;2346947;76;50224;-77
2022/12/22 18:13:50;;;;;;;;;;;;;;;12.92;56.69;99844.25;2327228;76;51719;-77
2022/12/22 18:16:52;;;;;;;;;;;;;;;12.92;56.66;99845.11;2348233;76;50770;-77
2022/12/22 18:19:54;;;;;;;;;;;;;;;12.92;56.63;99840.27;2325555;75;50138;-77
2022/12/22 18:22:57;;;;;;;;;;;;;;;12.90;56.73;99835.14;2325515;76;51541;-77
2022/12/22 18:25:58;;;;;;;;;;;;;;;12.91;56.62;99846.08;2333713;74;51535;-77
2022/12/22 18:29:02;;;;;;;;;;;;;;;12.91;56.70;99844.76;2378053;73;50305;-77
2022/12/22 18:32:03;;;;;;;;;;;;;;;12.91;56.66;99851.39;2378615;73;22341;-77
2022/12/22 18:35:07;;;;;;;;;;;;;;;12.91;56.61;99851.39;2348022;73;50325;-77
2022/12/22 18:38:10;;;;;;;;;;;;;;;12.93;56.70;99855.23;2347370;73;51836;-77
2022/12/22 18:41:13;;;;;;;;;;;;;;;12.92;56.67;99850.89;2369027;73;52614;-77
2022/12/22 18:44:16;;;;;;;;;;;;;;;12.91;56.65;99845.27;2378188;75;50500;-77
2022/12/22 18:47:17;;;;;;;;;;;;;;;12.92;56.61;99846.91;2378306;75;50318;-77
2022/12/22 18:50:20;;;;;;;;;;;;;;;12.93;56.65;99843.28;2321405;75;51377;-78
2022/12/22 18:53:23;;;;;;;;;;;;;;;12.91;56.73;99850.06;2378813;73;51404;-78
2022/12/22 18:56:24;;;;;;;;;;;;;;;12.91;56.72;99855.38;2359969;73;51958;-77
2022/12/22 18:59:31;;;;;;;;;;;;;;;12.93;56.61;99851.24;2325884;75;50403;-77
2022/12/22 19:02:32;;;;;;;;;;;;;;;12.91;56.74;99858.03;2301170;76;51301;-78
2022/12/22 19:05:36;;;;;;;;;;;;;;;12.92;56.70;99852.22;2346059;76;50334;-77
2022/12/22 19:08:37;;;;;;;;;;;;;;;12.91;56.75;99854.05;2346109;74;22453;-77
2022/12/22 19:11:39;;;;;;;;;;;;;;;12.92;56.69;99848.23;2326262;76;50757;-77
2022/12/22 19:14:41;;;;;;;;;;;;;;;12.91;56.72;99856.70;2326163;76;52537;-77
2022/12/22 19:17:43;;;;;;;;;;;;;;;12.92;56.67;99856.20;2346091;74;50408;-76
2022/12/22 19:20:44;;;;;;;;;;;;;;;12.92;56.65;99848.23;2345906;76;50227;-77
2022/12/22 19:23:47;;;;;;;;;;;;;;;12.92;56.78;99846.91;2345838;76;50782;-77
2022/12/22 19:26:48;;;;;;;;;;;;;;;12.90;56.80;99846.27;2305121;74;52622;-76
2022/12/22 19:29:51;;;;;;;;;;;;;;;12.90;56.74;99849.75;2325799;75;51547;-76
2022/12/22 19:32:55;;;;;;;;;;;;;;;12.91;56.82;99851.39;2345526;76;50743;-77